Time;durP1;ratioP1;P1;durP2;ratioP2;P2;SDS_P1;SDS_P2;PMS_P1;PMS_P2;Temp;Humidity;BMP_temperature;BMP_pressure;BME280_temperature;BME280_humidity;BME280_pressure;Samples;Min_cycle;Max_cycle;Signal;HPM_P1;HPM_P2
2022/05/24 00:00:25;;;;;;;39.67;24.33;;;;;;;15.88;77.65;100109.56;5044300;28;20535;-74
2022/05/24 00:02:50;;;;;;;35.92;22.52;;;;;;;15.89;77.34;100104.31;5038506;28;20037;-75
2022/05/24 00:05:16;;;;;;;36.65;21.95;;;;;;;15.85;77.55;100096.47;5041588;28;20078;-75
2022/05/24 00:07:42;;;;;;;34.38;20.05;;;;;;;15.85;77.14;100093.84;5019054;28;20024;-81
2022/05/24 00:10:10;;;;;;;32.55;19.90;;;;;;;15.84;77.08;100086.84;5044785;28;20079;-82
2022/05/24 00:12:38;;;;;;;32.25;19.67;;;;;;;15.80;77.37;100081.63;5033781;28;20691;-81
2022/05/24 00:15:20;;;;;;;29.48;18.17;;;;;;;15.79;76.72;100076.38;5008654;28;20439;-82
2022/05/24 00:18:05;;;;;;;30.52;18.48;;;;;;;15.77;76.73;100075.47;5028349;28;20024;-81
2022/05/24 00:20:38;;;;;;;27.63;17.48;;;;;;;15.74;76.38;100080.78;5035461;28;20088;-81
2022/05/24 00:23:04;;;;;;;29.52;16.88;;;;;;;15.64;76.27;100080.88;5022318;28;20040;-82
2022/05/24 00:25:32;;;;;;;26.55;16.60;;;;;;;15.63;76.49;100091.41;5030798;28;20029;-81
2022/05/24 00:27:57;;;;;;;27.05;17.13;;;;;;;15.58;76.96;100087.94;5040950;28;20033;-81
2022/05/24 00:30:22;;;;;;;26.15;16.60;;;;;;;15.60;76.75;100094.06;5030948;28;20528;-82
2022/05/24 00:32:48;;;;;;;29.38;16.95;;;;;;;15.55;76.80;100093.22;5036638;28;20024;-81
2022/05/24 00:35:15;;;;;;;27.67;16.63;;;;;;;15.55;77.02;100085.34;5021499;28;20052;-81
2022/05/24 00:37:41;;;;;;;24.95;16.70;;;;;;;15.54;77.00;100078.31;5020981;28;20075;-81
2022/05/24 00:40:10;;;;;;;27.20;15.82;;;;;;;15.48;76.58;100082.78;5048259;28;20180;-82
2022/05/24 00:42:38;;;;;;;26.83;17.15;;;;;;;15.50;76.49;100080.13;5023114;28;20075;-81
2022/05/24 01:09:54;;;;;;;22.08;11.70;;;;;;;15.21;75.06;100083.88;5041593;28;20044;-81
2022/05/24 01:12:28;;;;;;;22.70;11.77;;;;;;;15.16;74.90;100077.78;5031823;28;20488;-82
2022/05/24 01:14:57;;;;;;;20.73;11.57;;;;;;;15.12;75.09;100070.81;5031371;28;20029;-81
2022/05/24 01:17:22;;;;;;;19.08;11.95;;;;;;;15.09;75.38;100082.22;5042192;28;20035;-82
2022/05/24 01:19:49;;;;;;;21.67;12.15;;;;;;;15.06;75.01;100084.84;5027023;28;20486;-82
2022/05/24 01:22:32;;;;;;;21.15;12.05;;;;;;;15.08;74.82;100080.47;5022831;28;20029;-82
2022/05/24 01:25:29;;;;;;;23.67;11.05;;;;;;;15.06;74.54;100065.59;5019093;28;20037;-81
2022/05/24 01:27:55;;;;;;;19.33;10.65;;;;;;;15.04;74.96;100083.97;5046934;28;20078;-80
2022/05/24 01:30:20;;;;;;;18.48;10.70;;;;;;;15.00;74.40;100090.13;5037090;28;20137;-81
2022/05/24 01:38:19;;;;;;;16.58;9.68;;;;;;;14.87;74.70;100099.81;5024619;28;20086;-81
2022/05/24 01:40:47;;;;;;;18.70;10.65;;;;;;;14.85;74.50;100088.47;5028570;28;20034;-80
2022/05/24 01:43:15;;;;;;;20.97;10.03;;;;;;;14.81;74.55;100093.75;5034592;28;20092;-81
2022/05/24 01:45:48;;;;;;;18.52;9.63;;;;;;;14.80;75.06;100089.38;5024800;28;20350;-81
2022/05/24 01:48:17;;;;;;;18.27;9.88;;;;;;;14.78;74.60;100087.63;5041898;28;20408;-82
2022/05/24 01:50:44;;;;;;;17.60;8.65;;;;;;;14.74;74.29;100090.28;5032137;28;20030;-81
2022/05/24 01:53:15;;;;;;;14.82;8.43;;;;;;;14.78;73.96;100097.28;5031653;28;20021;-81
2022/05/24 01:55:48;;;;;;;14.90;8.52;;;;;;;14.76;75.03;100093.78;5037210;28;20048;-80
2022/05/24 01:58:17;;;;;;;13.38;7.78;;;;;;;14.73;73.82;100086.81;5038464;28;20480;-81
2022/05/24 02:00:49;;;;;;;14.68;7.13;;;;;;;14.74;73.67;100095.53;5013768;28;20112;-81
2022/05/24 02:03:14;;;;;;;15.10;7.60;;;;;;;14.67;73.40;100080.72;5032972;28;20029;-81
2022/05/24 02:05:42;;;;;;;16.52;7.40;;;;;;;14.63;74.03;100079.88;5023624;28;20442;-80
2022/05/24 02:08:09;;;;;;;13.68;6.95;;;;;;;14.65;73.79;100075.47;5013963;28;20029;-80
2022/05/24 02:10:45;;;;;;;14.55;7.25;;;;;;;14.60;73.98;100082.50;5014854;28;20443;-80
2022/05/24 02:13:13;;;;;;;14.63;6.45;;;;;;;14.53;73.33;100078.16;5049384;28;20021;-81
2022/05/24 02:15:46;;;;;;;12.63;6.10;;;;;;;14.50;73.87;100086.91;5035911;28;20029;-81
2022/05/24 02:18:14;;;;;;;13.88;6.80;;;;;;;14.48;74.16;100101.75;5017710;28;20033;-81
2022/05/24 02:20:45;;;;;;;11.98;6.65;;;;;;;14.46;74.08;100095.66;5035258;28;20033;-81
2022/05/24 02:23:14;;;;;;;12.45;6.20;;;;;;;14.47;73.64;100089.53;5044653;28;20035;-81
2022/05/24 02:25:53;;;;;;;11.18;5.90;;;;;;;14.47;73.94;100099.13;5042085;28;20443;-81
2022/05/24 02:28:21;;;;;;;;;;;;;;;14.62;73.44;100106.97;5026555;28;20021;-80
2022/05/24 02:30:56;;;;;;;13.20;5.35;;;;;;;14.50;73.46;100096.53;5023769;28;20395;-80
2022/05/24 02:33:23;;;;;;;12.68;5.38;;;;;;;14.51;73.64;100098.25;5038895;28;20120;-81
2022/05/24 02:35:49;;;;;;;10.55;5.15;;;;;;;14.49;73.05;100094.78;5034281;28;20049;-81
2022/05/24 02:38:15;;;;;;;13.10;5.20;;;;;;;14.43;72.84;100086.03;5009472;28;20029;-81
2022/05/24 02:43:25;;;;;;;10.52;5.00;;;;;;;14.39;72.67;100093.94;5042727;28;20063;-80
2022/05/24 02:45:50;;;;;;;11.23;4.60;;;;;;;14.37;72.92;100093.94;5048899;28;20032;-80
2022/05/24 02:48:15;;;;;;;10.40;4.35;;;;;;;14.32;72.65;100087.84;5039299;28;20064;-81
2022/05/24 02:50:41;;;;;;;8.65;3.90;;;;;;;14.31;73.29;100091.34;5041226;28;20018;-80
2022/05/24 02:53:07;;;;;;;11.90;4.35;;;;;;;14.28;72.91;100091.38;5012210;28;20125;-80
2022/05/24 02:55:32;;;;;;;12.13;4.20;;;;;;;14.31;72.91;100101.84;5042496;28;20080;-81
2022/05/24 02:57:58;;;;;;;12.13;4.68;;;;;;;14.28;72.44;100094.00;5013216;28;20021;-80
2022/05/24 03:00:25;;;;;;;10.23;4.40;;;;;;;14.24;72.76;100095.72;5044819;28;20047;-81
2022/05/24 03:02:51;;;;;;;13.07;4.78;;;;;;;14.28;73.55;100080.88;5033211;28;20048;-80
2022/05/24 03:05:17;;;;;;;17.17;4.63;;;;;;;14.25;73.31;100080.88;5032366;28;20480;-81
2022/05/24 03:10:28;;;;;;;12.73;4.32;;;;;;;14.19;72.96;100094.00;5048681;28;20043;-80
2022/05/24 03:15:39;;;;;;;10.13;4.30;;;;;;;14.13;72.97;100091.41;5051145;28;20190;-81
2022/05/24 03:18:05;;;;;;;13.60;4.95;;;;;;;14.12;72.97;100093.16;5045582;28;20108;-81
2022/05/24 03:20:30;;;;;;;9.77;4.57;;;;;;;14.12;73.20;100089.66;5012644;28;20108;-80
2022/05/24 03:22:56;;;;;;;10.50;4.38;;;;;;;14.11;73.34;100087.91;5020809;28;20474;-81
2022/05/24 03:25:21;;;;;;;11.90;4.60;;;;;;;14.09;73.43;100093.16;5038954;28;20084;-81
2022/05/24 03:27:46;;;;;;;11.80;4.90;;;;;;;14.08;73.58;100107.16;5027107;28;20484;-80
2022/05/24 03:30:15;;;;;;;12.60;5.50;;;;;;;14.09;73.98;100101.91;5035386;28;20053;-81
2022/05/24 03:32:40;;;;;;;10.90;5.75;;;;;;;14.11;74.01;100101.91;5046482;28;20483;-81
2022/05/24 03:35:07;;;;;;;9.90;4.70;;;;;;;14.11;74.02;100111.47;5043061;28;20033;-81
2022/05/24 03:37:33;;;;;;;11.52;5.10;;;;;;;14.09;73.85;100106.25;5008952;28;20503;-80
2022/05/24 03:39:58;;;;;;;10.88;5.03;;;;;;;14.04;73.82;100100.16;5035741;28;20032;-82
2022/05/24 03:42:23;;;;;;;9.55;4.93;;;;;;;14.08;74.09;100102.78;5020011;28;20046;-80
2022/05/24 03:44:49;;;;;;;11.20;5.32;;;;;;;14.04;73.67;100101.03;5026503;28;20037;-82
2022/05/24 03:47:14;;;;;;;13.23;5.57;;;;;;;14.06;74.12;100094.06;5034141;28;20032;-81
2022/05/24 03:49:39;;;;;;;12.40;6.05;;;;;;;14.03;74.01;100095.78;5040410;28;20025;-82
2022/05/24 03:52:05;;;;;;;14.38;6.32;;;;;;;13.98;73.68;100105.44;5025998;28;20029;-80
2022/05/24 03:54:30;;;;;;;14.80;6.68;;;;;;;14.01;74.36;100121.13;5045146;28;20037;-81
2022/05/24 03:59:41;;;;;;;15.15;6.57;;;;;;;14.00;74.45;100135.09;4982389;28;20057;-79
2022/05/24 04:02:06;;;;;;;11.80;6.10;;;;;;;13.98;74.11;100135.09;5025910;28;20033;-81
2022/05/24 04:04:32;;;;;;;14.20;6.45;;;;;;;14.01;74.41;100134.22;5048652;28;20025;-81
2022/05/24 04:06:57;;;;;;;12.80;6.68;;;;;;;13.98;74.91;100165.69;5035361;28;20040;-80
2022/05/24 04:09:22;;;;;;;16.67;5.82;;;;;;;13.97;74.63;100162.16;5043201;28;20017;-80
2022/05/24 04:11:48;;;;;;;17.95;6.35;;;;;;;13.98;74.34;100170.91;5039776;28;20021;-81
2022/05/24 04:14:13;;;;;;;13.73;6.05;;;;;;;13.98;74.49;100165.69;5044061;28;20025;-79
2022/05/24 04:16:38;;;;;;;10.60;5.53;;;;;;;13.89;74.75;100175.28;5036268;28;20104;-81
2022/05/24 04:19:04;;;;;;;10.65;5.82;;;;;;;13.89;74.85;100170.03;5043325;28;20028;-81
2022/05/24 04:21:30;;;;;;;14.90;5.75;;;;;;;13.87;74.42;100163.06;5041797;28;20032;-81
2022/05/24 04:23:55;;;;;;;11.90;5.35;;;;;;;13.87;74.75;100149.97;5043624;28;20412;-82
2022/05/24 04:26:20;;;;;;;12.48;5.00;;;;;;;13.87;74.11;100126.38;5041667;28;20040;-81
2022/05/24 04:28:46;;;;;;;11.30;4.72;;;;;;;13.86;74.63;100122.91;5045295;28;20075;-79
2022/05/24 04:31:11;;;;;;;10.93;5.15;;;;;;;13.88;74.48;100123.75;5038638;28;20097;-81
2022/05/24 04:33:36;;;;;;;13.10;4.97;;;;;;;13.90;74.44;100126.38;5045108;28;20081;-81
2022/05/24 04:36:02;;;;;;;11.23;4.78;;;;;;;13.86;74.60;100154.34;5034601;28;20029;-81
2022/05/24 04:38:27;;;;;;;13.35;4.93;;;;;;;13.85;75.02;100180.53;5017560;28;20025;-81
2022/05/24 04:43:37;;;;;;;13.18;5.18;;;;;;;13.85;74.89;100184.00;5048442;28;20079;-81
2022/05/24 04:46:03;;;;;;;13.30;5.07;;;;;;;13.90;74.81;100176.13;5040820;28;20557;-82
2022/05/24 04:48:28;;;;;;;12.88;4.97;;;;;;;13.93;74.86;100167.41;5022043;28;20038;-82
2022/05/24 04:50:55;;;;;;;12.65;4.57;;;;;;;13.91;74.91;100170.03;5027750;28;20396;-81
2022/05/24 04:53:22;;;;;;;12.90;4.63;;;;;;;13.87;74.63;100181.38;5036466;28;20063;-81
2022/05/24 04:55:50;;;;;;;11.70;4.25;;;;;;;13.87;74.56;100189.25;5049456;28;20096;-82
2022/05/24 04:58:16;;;;;;;9.43;4.05;;;;;;;13.87;74.91;100187.47;5018604;28;20408;-81
2022/05/24 05:00:42;;;;;;;15.88;4.95;;;;;;;13.90;74.29;100195.38;5042672;28;20022;-81
2022/05/24 05:03:13;;;;;;;12.23;4.47;;;;;;;13.86;74.50;100203.19;5019507;28;20441;-81
2022/05/24 05:05:38;;;;;;;10.23;3.90;;;;;;;13.84;74.62;100211.06;5041555;28;20072;-81
2022/05/24 05:08:05;;;;;;;11.13;3.97;;;;;;;13.81;74.77;100215.44;5022554;28;20057;-81
2022/05/24 05:10:30;;;;;;;10.10;4.20;;;;;;;13.78;74.62;100220.69;5038733;28;20033;-81
2022/05/24 05:12:56;;;;;;;10.95;3.63;;;;;;;13.82;74.74;100225.91;5046676;28;20028;-81
2022/05/24 05:15:21;;;;;;;10.82;4.18;;;;;;;13.77;75.09;100230.25;5028899;28;20022;-81
2022/05/24 05:17:46;;;;;;;9.05;4.13;;;;;;;13.74;74.69;100241.63;5021374;28;20029;-81
2022/05/24 05:20:13;;;;;;;10.07;4.10;;;;;;;13.76;75.11;100241.63;5034487;28;20438;-80
2022/05/24 05:22:38;;;;;;;11.18;4.05;;;;;;;13.72;74.78;100227.63;5038271;28;20041;-80
2022/05/24 05:25:05;;;;;;;9.98;4.10;;;;;;;13.76;74.82;100227.63;5006520;28;20029;-82
2022/05/24 05:27:30;;;;;;;9.35;4.13;;;;;;;13.75;74.86;100224.16;5028158;28;20034;-81
2022/05/24 05:32:39;;;;;;;10.85;4.10;;;;;;;13.72;74.50;100232.88;5043046;28;20129;-79
2022/05/24 05:35:07;;;;;;;9.63;4.40;;;;;;;13.70;75.07;100234.63;5039223;28;20123;-81
2022/05/24 05:37:32;;;;;;;10.75;4.68;;;;;;;13.71;74.80;100225.88;5025910;28;20079;-80
2022/05/24 05:40:02;;;;;;;12.93;4.38;;;;;;;13.73;74.66;100218.06;5041359;28;20053;-80
2022/05/24 05:42:27;;;;;;;8.88;4.05;;;;;;;13.71;74.69;100212.78;5048219;28;20108;-81
2022/05/24 05:44:53;;;;;;;13.40;4.65;;;;;;;13.71;74.35;100219.78;5041267;28;20156;-79
2022/05/24 05:47:18;;;;;;;10.25;4.30;;;;;;;13.68;74.58;100231.13;5031833;28;20029;-80
2022/05/24 05:49:44;;;;;;;11.98;4.18;;;;;;;13.67;74.68;100223.28;5019579;28;20492;-81
2022/05/24 05:52:09;;;;;;;9.18;4.13;;;;;;;13.69;74.09;100232.88;5039226;28;20041;-80
2022/05/24 05:54:34;;;;;;;11.32;4.13;;;;;;;13.66;74.17;100239.88;5023830;28;20449;-81
2022/05/24 05:57:00;;;;;;;10.55;4.18;;;;;;;13.70;73.98;100250.34;5033980;28;20026;-79
2022/05/24 05:59:26;;;;;;;9.48;4.13;;;;;;;13.68;73.67;100259.06;5026393;28;20467;-81
2022/05/24 06:01:55;;;;;;;8.45;3.65;;;;;;;13.65;74.29;100257.31;5022212;28;20037;-82
2022/05/24 06:04:20;;;;;;;11.43;3.85;;;;;;;13.57;73.46;100267.78;5024389;28;20065;-82
2022/05/24 06:06:45;;;;;;;9.57;3.97;;;;;;;13.59;74.42;100272.16;5032881;28;20071;-81
2022/05/24 06:09:11;;;;;;;11.00;3.78;;;;;;;13.54;74.33;100269.50;5033102;28;20036;-81
2022/05/24 06:11:36;;;;;;;12.90;4.32;;;;;;;13.52;74.25;100269.50;5037736;28;20047;-80
2022/05/24 06:14:02;;;;;;;12.25;3.95;;;;;;;13.56;74.70;100270.38;5029294;28;20449;-82
2022/05/24 06:16:27;;;;;;;8.98;3.53;;;;;;;13.60;74.22;100274.75;5036703;28;20032;-81
2022/05/24 06:18:53;;;;;;;12.50;4.20;;;;;;;13.65;74.39;100275.63;5041253;28;20047;-81
2022/05/24 06:21:18;;;;;;;10.23;3.75;;;;;;;13.70;74.06;100279.16;5042911;28;20040;-81
2022/05/24 06:23:43;;;;;;;7.78;4.00;;;;;;;13.73;74.06;100273.91;5028847;28;20038;-81
2022/05/24 06:26:08;;;;;;;10.57;4.20;;;;;;;13.82;74.51;100274.81;5035430;28;20035;-80
2022/05/24 06:28:35;;;;;;;9.60;4.22;;;;;;;13.97;74.44;100280.03;5036636;28;20042;-81
2022/05/24 06:31:00;;;;;;;11.00;4.05;;;;;;;14.00;73.89;100272.16;5032950;28;20052;-81
2022/05/24 06:33:32;;;;;;;7.55;3.50;;;;;;;14.12;73.18;100280.91;5029482;28;20446;-80
2022/05/24 06:35:57;;;;;;;8.38;3.85;;;;;;;14.18;72.34;100273.94;5022184;28;20034;-81
2022/05/24 06:38:23;;;;;;;10.90;3.45;;;;;;;14.24;72.43;100279.16;5021801;28;20488;-81
2022/05/24 06:40:48;;;;;;;10.63;3.55;;;;;;;14.26;71.89;100284.41;5007907;28;20060;-81
2022/05/24 06:43:14;;;;;;;10.43;3.70;;;;;;;14.27;71.65;100286.16;5022424;28;20032;-80
2022/05/24 06:45:39;;;;;;;8.73;3.63;;;;;;;14.28;71.17;100285.28;5015491;28;20033;-81
2022/05/24 06:48:14;;;;;;;11.70;3.95;;;;;;;14.30;71.33;100296.63;5028493;28;20021;-81
2022/05/24 06:50:41;;;;;;;8.77;3.47;;;;;;;14.31;70.86;100301.00;5016917;28;20056;-80
2022/05/24 06:53:06;;;;;;;7.88;3.25;;;;;;;14.39;71.72;100306.22;5022371;28;20033;-81
2022/05/24 06:55:32;;;;;;;9.40;3.55;;;;;;;14.37;70.87;100314.09;5020390;28;20025;-81
2022/05/24 06:57:57;;;;;;;10.48;3.00;;;;;;;14.39;69.81;100324.56;5021248;28;20022;-82
2022/05/24 07:03:10;;;;;;;8.43;3.20;;;;;;;14.40;70.43;100323.72;5023430;28;20063;-80
2022/05/24 07:05:36;;;;;;;8.95;2.90;;;;;;;14.47;70.50;100316.69;5034053;28;20120;-81
2022/05/24 07:08:01;;;;;;;8.00;2.95;;;;;;;14.47;70.08;100328.09;5029822;28;20451;-80
2022/05/24 07:10:30;;;;;;;7.35;3.35;;;;;;;14.49;70.77;100334.19;5034622;28;20037;-79
2022/05/24 07:13:08;;;;;;;7.50;2.78;;;;;;;14.52;70.91;100342.03;5030078;28;20373;-81
2022/05/24 07:15:33;;;;;;;9.35;3.33;;;;;;;14.52;69.04;100336.78;5018312;28;20034;-81
2022/05/24 07:18:00;;;;;;;8.25;3.75;;;;;;;14.54;68.65;100342.03;5012459;28;20036;-81
2022/05/24 07:20:26;;;;;;;8.43;3.95;;;;;;;14.52;69.04;100354.28;5031953;28;20488;-79
2022/05/24 07:22:53;;;;;;;10.07;4.35;;;;;;;14.49;68.78;100343.81;5036639;28;20566;-80
2022/05/24 07:25:19;;;;;;;11.48;4.88;;;;;;;14.46;68.00;100346.44;5035146;28;20041;-79
2022/05/24 07:27:44;;;;;;;11.57;4.55;;;;;;;14.44;68.20;100355.16;5041980;28;20025;-79
2022/05/24 07:30:10;;;;;;;9.55;4.03;;;;;;;14.44;67.92;100351.69;5029806;28;20106;-80
2022/05/24 07:32:36;;;;;;;7.35;4.15;;;;;;;14.43;68.30;100353.41;5028853;28;20500;-79
2022/05/24 07:35:03;;;;;;;7.68;4.05;;;;;;;14.46;69.11;100362.16;5039787;28;20037;-80
2022/05/24 07:37:28;;;;;;;8.25;4.03;;;;;;;14.50;69.61;100363.91;5027754;28;20060;-79
2022/05/24 07:45:48;;;;;;;8.55;4.75;;;;;;;14.53;69.37;100367.38;5035198;28;20501;-79
2022/05/24 07:48:07;;;;;;;7.80;4.18;;;;;;;14.63;69.44;100365.69;5030205;28;20047;-82
2022/05/24 07:50:32;;;;;;;8.15;4.18;;;;;;;14.65;68.54;100358.66;5034306;28;20028;-81
2022/05/24 07:52:58;;;;;;;6.68;4.30;;;;;;;14.65;67.31;100363.06;5023342;28;20049;-80
2022/05/24 07:55:25;;;;;;;7.55;4.43;;;;;;;14.64;68.04;100369.16;5020737;28;20095;-82
2022/05/24 07:57:50;;;;;;;7.35;3.88;;;;;;;14.66;66.99;100365.66;5031388;28;20025;-81
2022/05/24 08:00:16;;;;;;;8.27;4.25;;;;;;;14.65;66.59;100374.41;5018474;28;20029;-80
2022/05/24 08:02:41;;;;;;;8.52;4.10;;;;;;;14.63;66.55;100375.28;5037603;28;20183;-82
2022/05/24 08:05:07;;;;;;;9.13;5.30;;;;;;;14.66;66.84;100372.69;5049084;28;20021;-78
2022/05/24 08:07:33;;;;;;;9.23;5.03;;;;;;;14.68;66.44;100373.53;5045614;28;20091;-81
2022/05/24 08:09:58;;;;;;;8.27;4.78;;;;;;;14.69;66.57;100373.53;5036440;28;20472;-79
2022/05/24 08:12:23;;;;;;;11.40;4.90;;;;;;;14.72;68.38;100378.78;5049089;28;20473;-81
2022/05/24 08:14:49;;;;;;;8.70;5.22;;;;;;;14.75;68.48;100385.78;5022711;28;20089;-82
2022/05/24 08:17:15;;;;;;;11.00;4.60;;;;;;;14.78;69.00;100389.25;5025594;28;20026;-73
2022/05/24 08:19:40;;;;;;;7.50;5.20;;;;;;;14.82;68.29;100386.66;5017208;28;20064;-63
2022/05/24 08:22:06;;;;;;;9.27;5.57;;;;;;;14.87;68.05;100390.13;5025444;28;20480;-63
2022/05/24 08:24:32;;;;;;;10.60;6.55;;;;;;;14.88;67.20;100400.59;5032264;28;20064;-64
2022/05/24 08:26:58;;;;;;;12.32;7.30;;;;;;;14.90;67.07;100396.25;5032296;28;20091;-63
2022/05/24 08:29:23;;;;;;;11.43;8.20;;;;;;;14.93;66.02;100400.59;5041728;28;20041;-63
2022/05/24 08:31:49;;;;;;;15.10;9.00;;;;;;;14.94;65.52;100404.97;5035559;28;20101;-63
2022/05/24 08:34:14;;;;;;;10.18;7.32;;;;;;;14.96;65.77;100411.09;5029462;28;20025;-63
2022/05/24 08:36:40;;;;;;;11.43;7.32;;;;;;;14.93;65.34;100419.84;5037674;28;20032;-63
2022/05/24 08:39:06;;;;;;;10.38;7.10;;;;;;;14.89;66.13;100418.09;5021288;28;20042;-63
2022/05/24 08:41:34;;;;;;;10.60;6.07;;;;;;;14.90;66.18;100419.84;5011256;28;20129;-63
2022/05/24 08:49:44;;;;;;;9.32;5.53;;;;;;;14.72;65.61;100436.47;5032699;28;20040;-64
2022/05/24 08:52:09;;;;;;;9.90;6.30;;;;;;;14.73;66.20;100442.56;5025704;28;20017;-63
2022/05/24 08:54:44;;;;;;;9.10;4.93;;;;;;;14.77;67.04;100442.59;5041871;28;20131;-63
2022/05/24 08:57:37;;;;;;;9.98;5.05;;;;;;;14.82;66.84;100444.34;5034856;28;20037;-63
2022/05/24 09:00:10;;;;;;;7.43;5.00;;;;;;;14.76;65.52;100448.72;5010420;28;20101;-63
2022/05/24 09:02:38;;;;;;;9.60;4.82;;;;;;;14.73;65.60;100456.59;5029977;28;20048;-63
2022/05/24 09:05:03;;;;;;;9.48;4.65;;;;;;;14.75;66.18;100460.06;5031412;28;20109;-64
2022/05/24 09:08:16;;;;;;;8.02;4.20;;;;;;;14.76;66.59;100460.97;5043393;28;20163;-63
2022/05/24 09:10:56;;;;;;;8.80;4.38;;;;;;;14.74;65.42;100468.84;5038233;28;20036;-63
2022/05/24 09:13:54;;;;;;;6.65;4.25;;;;;;;14.68;64.75;100473.19;5049785;28;20021;-63
2022/05/24 09:16:24;;;;;;;9.70;5.43;;;;;;;14.60;64.22;100474.03;5033373;28;20107;-63
2022/05/24 09:19:19;;;;;;;9.85;5.18;;;;;;;14.60;66.66;100481.03;5038964;28;20033;-63
2022/05/24 09:21:47;;;;;;;8.07;4.63;;;;;;;14.60;65.94;100488.88;5025344;28;20570;-63
2022/05/24 09:24:30;;;;;;;11.57;4.73;;;;;;;14.62;66.72;100487.16;5025628;28;20026;-63
2022/05/24 09:27:49;;;;;;;7.60;4.93;;;;;;;14.70;66.70;100485.44;5044845;28;20021;-63
2022/05/24 09:30:28;;;;;;;9.85;6.40;;;;;;;14.72;66.36;100488.06;5041813;28;20052;-63
2022/05/24 09:33:13;;;;;;;;;;;;;;;14.76;66.18;100488.06;5023122;28;20485;-63
2022/05/24 09:35:40;;;;;;;16.25;7.20;;;;;;;14.73;66.33;100498.53;5035658;28;19909;-63
2022/05/24 09:38:13;;;;;;;12.80;7.60;;;;;;;14.72;65.29;100504.66;5017615;28;20033;-63
2022/05/24 09:40:56;;;;;;;12.95;8.25;;;;;;;14.71;64.84;100504.66;5039238;28;20075;-64
2022/05/24 09:43:26;;;;;;;10.52;7.97;;;;;;;14.67;64.50;100506.41;5024036;28;20029;-63
2022/05/24 09:45:58;;;;;;;11.70;8.55;;;;;;;14.67;64.98;100514.28;5018900;28;20029;-63
2022/05/24 09:48:28;;;;;;;12.82;8.60;;;;;;;14.72;66.12;100515.13;5019840;28;20126;-63
2022/05/24 09:50:55;;;;;;;12.25;8.98;;;;;;;14.85;65.98;100513.41;5036263;28;20140;-63
2022/05/24 09:53:26;;;;;;;13.43;9.40;;;;;;;15.00;66.64;100517.78;5036078;28;20029;-64
2022/05/24 09:55:59;;;;;;;15.38;11.35;;;;;;;15.15;65.76;100527.41;5032536;28;20022;-63
2022/05/24 09:58:36;;;;;;;15.70;11.07;;;;;;;15.23;64.80;100509.91;5041353;28;20033;-63
2022/05/24 10:01:14;;;;;;;17.83;12.77;;;;;;;15.33;64.23;100517.78;5042300;28;20029;-63
2022/05/24 10:03:39;;;;;;;16.60;12.65;;;;;;;15.38;64.18;100513.38;5029773;28;20041;-63
2022/05/24 10:06:27;;;;;;;18.57;14.00;;;;;;;15.44;63.77;100513.38;5036732;28;20539;-63
2022/05/24 10:08:59;;;;;;;16.35;12.18;;;;;;;15.52;62.94;100516.00;5028580;28;20314;-63
2022/05/24 10:11:29;;;;;;;17.13;12.40;;;;;;;15.57;63.65;100520.34;5047769;28;20543;-63
2022/05/24 10:14:14;;;;;;;18.20;13.48;;;;;;;15.59;62.29;100521.22;5021698;28;20026;-73
2022/05/24 10:16:47;;;;;;;18.63;14.30;;;;;;;15.62;62.59;100523.84;5024033;28;20034;-73
2022/05/24 10:19:25;;;;;;;18.15;14.18;;;;;;;15.62;60.85;100530.84;5027160;28;20084;-73
2022/05/24 10:22:12;;;;;;;15.98;13.00;;;;;;;15.64;62.16;100531.69;5028752;28;20034;-73
2022/05/24 10:25:17;;;;;;;14.85;11.60;;;;;;;15.59;60.65;100529.09;5019907;28;20087;-73
2022/05/24 10:27:59;;;;;;;17.38;12.82;;;;;;;15.61;61.61;100543.13;5021395;28;20041;-77
2022/05/24 10:30:31;;;;;;;16.05;13.32;;;;;;;15.61;60.54;100539.59;5024185;28;20060;-78
2022/05/24 10:39:34;;;;;;;;;;;;;;;15.71;61.88;100551.81;5023769;28;20811;-79
2022/05/24 10:42:05;;;;;;;19.25;14.90;;;;;;;15.68;60.39;100553.59;5024182;28;19960;-76
2022/05/24 10:44:47;;;;;;;18.48;14.73;;;;;;;15.67;61.43;100546.59;5026477;28;20021;-78
2022/05/24 10:47:27;;;;;;;17.50;14.45;;;;;;;15.66;62.54;100556.22;5034265;28;20082;-77
2022/05/24 10:50:01;;;;;;;18.65;13.90;;;;;;;15.65;62.44;100554.47;5037447;28;20080;-77
2022/05/24 10:52:33;;;;;;;17.27;13.32;;;;;;;15.66;64.94;100558.84;5034630;28;20509;-79
2022/05/24 10:55:03;;;;;;;12.85;10.18;;;;;;;15.74;65.88;100556.22;5034290;28;20044;-79
2022/05/24 10:57:33;;;;;;;12.15;8.88;;;;;;;15.80;67.26;100554.47;5038313;28;20069;-79
2022/05/24 11:00:16;;;;;;;10.10;8.25;;;;;;;15.88;65.76;100554.44;5026861;28;20025;-77
2022/05/24 11:02:54;;;;;;;11.82;7.55;;;;;;;15.89;64.78;100556.22;5041103;28;20037;-78
2022/05/24 11:05:27;;;;;;;9.85;6.65;;;;;;;15.94;66.02;100556.19;5040047;28;20033;-77
2022/05/24 11:08:18;;;;;;;9.77;6.13;;;;;;;15.98;66.11;100560.56;5022236;28;20435;-79
2022/05/24 11:10:47;;;;;;;11.95;7.90;;;;;;;16.02;69.23;100559.69;4994091;28;20386;-78
2022/05/24 11:13:19;;;;;;;11.73;8.30;;;;;;;16.15;68.10;100558.75;5043732;28;20100;-79
2022/05/24 11:15:52;;;;;;;12.13;7.63;;;;;;;16.28;69.97;100554.31;5025071;28;20037;-78
2022/05/24 11:18:24;;;;;;;12.18;9.43;;;;;;;16.33;64.41;100554.28;5036434;28;20032;-77
2022/05/24 11:20:59;;;;;;;13.73;9.32;;;;;;;16.39;64.67;100548.97;5039428;28;20071;-77
2022/05/24 11:23:32;;;;;;;12.98;10.52;;;;;;;16.45;62.79;100548.06;5032793;28;20028;-77
2022/05/24 11:26:10;;;;;;;16.13;10.98;;;;;;;16.52;62.29;100548.06;5044094;28;20029;-76
2022/05/24 11:28:43;;;;;;;14.73;10.90;;;;;;;16.62;62.76;100533.06;5032263;28;20025;-72
2022/05/24 11:31:36;;;;;;;13.30;10.52;;;;;;;16.70;62.31;100546.19;5031060;28;20037;-72
2022/05/24 11:34:09;;;;;;;12.85;9.40;;;;;;;16.70;57.13;100554.09;5027900;28;20067;-72
2022/05/24 11:36:44;;;;;;;15.98;10.35;;;;;;;16.69;58.50;100563.72;5041179;28;20074;-72
2022/05/24 11:39:21;;;;;;;14.18;10.75;;;;;;;16.68;58.46;100571.63;5030882;28;20033;-71
2022/05/24 11:41:47;;;;;;;11.52;9.45;;;;;;;16.70;58.41;100575.13;5023353;28;20076;-71
2022/05/24 11:44:34;;;;;;;14.15;11.57;;;;;;;16.69;59.00;100568.97;5028685;28;20049;-71
2022/05/24 11:46:59;;;;;;;16.50;11.57;;;;;;;16.74;59.29;100560.19;5021751;28;20037;-72
2022/05/24 11:49:27;;;;;;;14.65;12.30;;;;;;;16.79;58.68;100575.06;5037218;28;20033;-71
2022/05/24 11:52:38;;;;;;;14.27;12.45;;;;;;;16.85;58.64;100582.91;5045336;28;20078;-71
2022/05/24 11:55:04;;;;;;;13.80;12.30;;;;;;;16.91;57.91;100581.16;5027012;28;20497;-71
2022/05/24 11:57:39;;;;;;;14.70;12.68;;;;;;;16.98;60.38;100580.25;5028188;28;20029;-72
2022/05/24 12:00:06;;;;;;;15.02;13.43;;;;;;;17.02;59.25;100580.19;5028225;28;20037;-72
2022/05/24 12:07:54;;;;;;;15.55;12.77;;;;;;;17.09;60.23;100581.03;5016383;28;20041;-71
2022/05/24 12:08:44;;;;;;;15.60;12.10;;;;;;;17.04;57.59;100582.81;5036080;28;20597;-72
2022/05/24 12:11:16;;;;;;;14.73;12.38;;;;;;;16.93;55.39;100588.19;4976332;28;20132;-73
2022/05/24 12:13:56;;;;;;;13.82;12.10;;;;;;;16.84;56.01;100599.59;5045646;28;20480;-72
2022/05/24 12:16:39;;;;;;;17.23;12.30;;;;;;;16.77;56.44;100604.91;5032983;28;20033;-73
2022/05/24 12:19:07;;;;;;;10.25;8.50;;;;;;;16.70;55.42;100606.72;5029298;28;20115;-72
2022/05/24 12:21:54;;;;;;;11.73;9.15;;;;;;;16.63;56.28;100623.41;5085653;27;20363;-73
2022/05/24 12:24:28;;;;;;;10.60;8.90;;;;;;;16.58;57.18;100633.06;5087323;28;20525;-69
2022/05/24 12:27:50;;;;;;;10.10;8.30;;;;;;;16.56;59.42;100640.09;5078299;28;20391;-78
2022/05/24 12:30:18;;;;;;;12.57;9.20;;;;;;;16.49;60.26;100634.84;5075541;28;20461;-79
2022/05/24 12:32:44;;;;;;;10.80;8.15;;;;;;;16.47;61.12;100638.38;5075488;28;20514;-80
2022/05/24 12:35:14;;;;;;;10.40;7.47;;;;;;;16.37;61.76;100655.94;5080309;28;20028;-79
2022/05/24 12:37:51;;;;;;;10.63;7.47;;;;;;;16.34;61.60;100661.22;5071381;28;20028;-79
2022/05/24 12:40:23;;;;;;;11.05;7.60;;;;;;;16.27;62.62;100665.59;5080799;28;20044;-77